San Martin, Argentina
Current Conditions -  °F | °C
As of 12:00 PM on Sunday 23 Nov 2014 (Local Time) from SAME Reporting Station
Clear Clear  
Wind Chill: 82°   Ceiling: Unl
Heat Index: 82°   Visibility: 6mi
Dew Point: 46°   Wind: 3mph
Humidity: 28%   Direction: 50°NE
Pressure: 29.71"   Gusts: NA
Location:  33.07°S, 68.49°W
Report Text: SAME 231500Z 05003KT CAVOK 28/08 Q1006
Loading
Personal Weather Stations






























Interactive Weather Map New forecast layout! Learn more

10-Day Weather Forecast

Advertisements
Track Severe Weather on mobile